createdAt,value
2018-03-25T00:02:13.983Z,31.67
2018-03-25T00:04:47.435Z,30.67
2018-03-25T00:07:20.197Z,42.10
2018-03-25T00:09:53.350Z,36.00
2018-03-25T00:12:26.099Z,31.53
2018-03-25T00:14:58.601Z,27.33
2018-03-25T00:17:31.274Z,29.37
2018-03-25T00:36:35.131Z,33.00
2018-03-25T00:39:08.002Z,27.67
2018-03-25T00:41:40.565Z,39.83
2018-03-25T00:44:12.895Z,82.63
2018-03-25T01:03:21.881Z,30.53
2018-03-25T01:05:54.929Z,30.70
2018-03-25T01:08:27.658Z,38.03
2018-03-25T01:11:00.035Z,39.40
2018-03-25T01:13:32.595Z,34.87
2018-03-25T01:32:36.030Z,28.73
2018-03-25T01:35:09.282Z,29.90
2018-03-25T01:37:41.756Z,33.30
2018-03-25T01:56:47.279Z,45.27
2018-03-25T01:59:19.574Z,28.33
2018-03-25T02:01:52.003Z,27.20
2018-03-25T02:04:24.561Z,27.00
2018-03-25T02:23:27.998Z,18.97
2018-03-25T02:26:00.241Z,21.20
2018-03-25T02:28:33.282Z,23.77
2018-03-25T02:31:05.756Z,26.67
2018-03-25T02:50:09.515Z,25.40
2018-03-25T02:52:41.876Z,25.23
2018-03-25T02:55:14.069Z,22.00
2018-03-25T03:17:12.282Z,24.23
2018-03-25T03:19:45.315Z,27.07
2018-03-25T03:22:17.603Z,23.00
2018-03-25T03:41:21.231Z,23.17
2018-03-25T03:43:53.553Z,25.60
2018-03-25T03:46:25.982Z,22.87
2018-03-25T04:05:30.453Z,25.77
2018-03-25T04:08:02.733Z,24.83
2018-03-25T04:10:35.585Z,21.57
2018-03-25T04:29:40.459Z,20.63
2018-03-25T04:32:14.411Z,22.73
2018-03-25T04:34:46.674Z,25.83
2018-03-25T04:53:50.172Z,23.60
2018-03-25T04:56:22.585Z,21.70
2018-03-25T04:58:59.344Z,24.30
2018-03-25T05:01:31.959Z,22.03
2018-03-25T05:20:39.124Z,23.07
2018-03-25T05:23:11.419Z,23.70
2018-03-25T05:25:44.268Z,22.17
2018-03-25T05:44:47.851Z,23.53
2018-03-25T05:47:20.463Z,20.67
2018-03-25T05:49:52.836Z,25.93
2018-03-25T06:08:56.267Z,18.70
2018-03-25T06:11:28.620Z,23.17
2018-03-25T06:14:01.204Z,21.57
2018-03-25T06:16:33.563Z,25.90
2018-03-25T06:35:37.622Z,22.63
2018-03-25T06:38:11.749Z,25.73
2018-03-25T06:40:44.126Z,24.60
2018-03-25T06:43:16.548Z,23.70
2018-03-25T07:02:20.528Z,24.20
2018-03-25T07:04:53.916Z,23.53
2018-03-25T07:07:26.679Z,26.33
2018-03-25T07:09:59.624Z,28.07
2018-03-25T07:12:32.338Z,24.53
2018-03-25T07:15:05.552Z,22.53
2018-03-25T07:17:38.303Z,26.37
2018-03-25T07:20:11.014Z,24.90
2018-03-25T07:22:43.649Z,25.43
2018-03-25T07:41:47.329Z,27.60
2018-03-25T07:44:19.867Z,30.13
2018-03-25T07:46:52.691Z,30.80
2018-03-25T07:49:25.840Z,26.53
2018-03-25T07:51:58.487Z,28.73
2018-03-25T07:54:31.053Z,34.57
2018-03-25T07:57:04.236Z,28.60
2018-03-25T07:59:37.707Z,29.07
2018-03-25T08:02:10.531Z,27.53
2018-03-25T08:21:17.748Z,29.10
2018-03-25T08:23:54.414Z,34.20
2018-03-25T08:26:27.626Z,30.70
2018-03-25T08:29:00.533Z,27.63
2018-03-25T08:31:33.112Z,29.23
2018-03-25T08:34:06.130Z,30.03
2018-03-25T08:36:39.239Z,33.30
2018-03-25T08:39:11.917Z,28.80
2018-03-25T08:41:44.903Z,33.00
2018-03-25T08:44:17.347Z,31.23
2018-03-25T08:46:50.013Z,30.83
2018-03-25T08:49:23.095Z,31.47
2018-03-25T08:51:55.443Z,31.47
2018-03-25T08:54:28.185Z,32.47
2018-03-25T08:57:01.460Z,34.13
2018-03-25T08:59:34.058Z,30.97
2018-03-25T09:02:06.740Z,26.47
2018-03-25T09:04:40.692Z,33.23
2018-03-25T09:07:13.131Z,27.37
2018-03-25T09:09:45.786Z,26.00
2018-03-25T09:12:18.596Z,30.27
2018-03-25T09:14:51.350Z,33.47
2018-03-25T09:17:24.194Z,31.60
2018-03-25T09:19:57.101Z,34.83
2018-03-25T09:22:32.446Z,33.57
2018-03-25T09:25:06.349Z,27.80
2018-03-25T09:27:39.310Z,29.53
2018-03-25T09:30:11.889Z,30.53
2018-03-25T09:32:44.624Z,29.53
2018-03-25T09:35:17.444Z,29.67
2018-03-25T09:37:53.823Z,32.20
2018-03-25T09:40:27.413Z,30.60
2018-03-25T09:42:59.977Z,33.27
2018-03-25T09:45:32.766Z,30.73
2018-03-25T09:48:06.430Z,28.23
2018-03-25T09:50:39.099Z,27.73
2018-03-25T09:53:11.879Z,31.67
2018-03-25T09:55:44.703Z,27.87
2018-03-25T10:14:47.576Z,26.77
2018-03-25T10:17:20.493Z,28.77
2018-03-25T10:19:53.234Z,29.57
2018-03-25T10:22:25.971Z,28.60
2018-03-25T10:24:58.860Z,29.33
2018-03-25T10:27:31.762Z,27.73
2018-03-25T10:46:38.987Z,24.40
2018-03-25T10:49:11.886Z,27.13
2018-03-25T10:51:45.278Z,24.50
2018-03-25T11:10:50.668Z,26.27
2018-03-25T11:13:23.660Z,26.83
2018-03-25T11:15:56.554Z,26.70
2018-03-25T11:35:03.924Z,24.17
2018-03-25T11:37:36.893Z,26.03
2018-03-25T11:40:10.235Z,25.10
2018-03-25T11:42:45.577Z,24.17
2018-03-25T11:45:18.254Z,26.03
2018-03-25T11:47:51.488Z,24.53
2018-03-25T12:06:55.832Z,22.33
2018-03-25T12:09:28.482Z,23.53
2018-03-25T12:12:01.106Z,25.50
2018-03-25T12:31:04.153Z,24.57
2018-03-25T12:33:40.685Z,21.57
2018-03-25T12:36:13.564Z,23.03
2018-03-25T12:38:50.283Z,26.67
2018-03-25T12:41:23.091Z,25.07
2018-03-25T12:43:55.991Z,26.57
2018-03-25T12:46:28.728Z,27.43
2018-03-25T12:49:02.237Z,26.90
2018-03-25T12:51:35.087Z,27.03
2018-03-25T12:54:07.722Z,24.97
2018-03-25T12:56:40.528Z,25.73
2018-03-25T12:59:13.613Z,27.47
2018-03-25T13:01:46.121Z,29.77
2018-03-25T13:04:18.799Z,27.83
2018-03-25T13:06:51.873Z,27.90
2018-03-25T13:09:24.561Z,29.30
2018-03-25T13:28:27.168Z,29.47
2018-03-25T13:31:00.006Z,27.03
2018-03-25T13:33:32.829Z,24.77
2018-03-25T13:36:05.497Z,27.97
2018-03-25T13:38:38.221Z,27.70
2018-03-25T13:41:11.353Z,24.63
2018-03-25T13:43:44.367Z,27.90
2018-03-25T13:46:17.610Z,25.27
2018-03-25T13:48:50.367Z,26.53
2018-03-25T13:51:23.163Z,27.60
2018-03-25T13:53:56.027Z,25.83
2018-03-25T13:56:29.182Z,22.87
2018-03-25T13:59:05.641Z,27.37
2018-03-25T14:01:38.964Z,25.67
2018-03-25T14:04:12.872Z,28.20
2018-03-25T14:06:46.234Z,28.97
2018-03-25T14:09:19.645Z,30.67
2018-03-25T14:11:53.230Z,35.83
2018-03-25T14:14:25.984Z,27.73
2018-03-25T14:16:59.135Z,32.50
2018-03-25T14:19:32.283Z,29.20
2018-03-25T14:22:08.210Z,27.83
2018-03-25T14:24:41.273Z,29.07
2018-03-25T14:27:14.176Z,29.57
2018-03-25T14:29:46.925Z,30.30
2018-03-25T14:32:19.731Z,26.53
2018-03-25T14:51:27.748Z,29.20
2018-03-25T14:54:00.689Z,28.03
2018-03-25T14:56:34.406Z,28.03
2018-03-25T14:59:10.594Z,28.70
2018-03-25T15:01:43.549Z,27.30
2018-03-25T15:04:16.318Z,23.40
2018-03-25T15:23:23.346Z,24.77
2018-03-25T15:25:56.215Z,23.90
2018-03-25T15:28:29.208Z,24.47
2018-03-25T15:31:07.667Z,21.47
2018-03-25T15:33:43.531Z,24.43
2018-03-25T15:36:16.547Z,24.57
2018-03-25T15:55:20.525Z,21.13
2018-03-25T15:57:53.590Z,24.63
2018-03-25T16:00:26.295Z,23.47
2018-03-25T16:02:58.998Z,24.70
2018-03-25T16:05:32.082Z,23.63
2018-03-25T16:08:05.644Z,25.83
2018-03-25T16:10:38.229Z,25.60
2018-03-25T16:13:11.060Z,26.60
2018-03-25T16:15:45.144Z,26.40
2018-03-25T16:18:18.590Z,26.07
2018-03-25T16:20:51.999Z,24.27
2018-03-25T16:23:24.908Z,26.30
2018-03-25T16:25:57.632Z,23.27
2018-03-25T16:28:30.493Z,23.47
2018-03-25T16:47:35.560Z,30.90
2018-03-25T16:50:08.424Z,32.23
2018-03-25T16:52:41.082Z,33.57
2018-03-25T16:55:14.173Z,34.63
2018-03-25T16:57:46.924Z,29.93
2018-03-25T17:00:19.957Z,29.83
2018-03-25T17:02:55.035Z,35.00
2018-03-25T17:05:28.715Z,31.40
2018-03-25T17:08:01.767Z,34.20
2018-03-25T17:10:35.126Z,36.03
2018-03-25T17:13:08.180Z,34.93
2018-03-25T17:15:40.961Z,30.93
2018-03-25T17:18:13.941Z,35.57
2018-03-25T17:20:46.571Z,32.27
2018-03-25T17:23:20.783Z,34.90
2018-03-25T17:25:53.560Z,33.13
2018-03-25T17:28:26.220Z,32.23
2018-03-25T17:30:58.902Z,32.70
2018-03-25T17:33:32.033Z,31.90
2018-03-25T17:36:04.889Z,33.83
2018-03-25T17:38:37.452Z,33.53
2018-03-25T17:41:11.285Z,36.07
2018-03-25T17:43:44.508Z,36.53
2018-03-25T17:46:17.244Z,39.50
2018-03-25T17:48:50.694Z,34.87
2018-03-25T17:51:23.453Z,36.17
2018-03-25T17:53:56.276Z,36.57
2018-03-25T17:56:29.009Z,34.50
2018-03-25T17:59:01.692Z,33.90
2018-03-25T18:01:34.831Z,33.03
2018-03-25T18:04:08.290Z,36.13
2018-03-25T18:06:41.165Z,33.53
2018-03-25T18:09:14.607Z,30.83
2018-03-25T18:11:47.802Z,32.47
2018-03-25T18:14:20.714Z,31.93
2018-03-25T18:16:53.297Z,35.03
2018-03-25T18:19:27.046Z,30.80
2018-03-25T18:21:59.975Z,33.57
2018-03-25T18:24:32.835Z,40.97
2018-03-25T18:27:05.608Z,36.10
2018-03-25T18:29:38.497Z,34.77
2018-03-25T18:32:11.342Z,36.33
2018-03-25T18:34:44.288Z,40.63
2018-03-25T18:37:19.570Z,37.53
2018-03-25T18:39:52.532Z,35.80
2018-03-25T18:42:35.691Z,38.97
2018-03-25T18:45:15.714Z,38.50
2018-03-25T18:47:56.004Z,38.70
2018-03-25T19:09:41.478Z,40.87
2018-03-25T19:12:16.280Z,39.87
2018-03-25T19:14:49.274Z,37.47
2018-03-25T19:33:55.038Z,32.80
2018-03-25T19:36:31.745Z,32.63
2018-03-25T19:39:07.110Z,33.73
2018-03-25T19:41:43.298Z,39.67
2018-03-25T19:44:16.246Z,37.63
2018-03-25T19:46:49.548Z,40.40
2018-03-25T19:49:24.616Z,39.60
2018-03-25T19:51:57.718Z,39.40
2018-03-25T19:54:35.797Z,38.83
2018-03-25T19:57:11.399Z,41.33
2018-03-25T19:59:49.854Z,40.27
2018-03-25T20:02:26.885Z,39.53
2018-03-25T20:05:04.851Z,40.67
2018-03-25T20:39:43.096Z,30.40
2018-03-25T20:42:15.856Z,30.20
2018-03-25T20:44:48.687Z,33.70
2018-03-25T21:03:54.942Z,41.07
2018-03-25T21:06:27.552Z,35.90
2018-03-25T21:09:00.500Z,39.27
2018-03-25T21:28:05.299Z,35.13
2018-03-25T21:30:37.866Z,38.37
2018-03-25T21:33:11.585Z,37.83
2018-03-25T21:52:21.096Z,40.53
2018-03-25T21:54:53.956Z,40.03
2018-03-25T21:57:26.570Z,35.97
2018-03-25T21:59:59.296Z,41.23
2018-03-25T22:02:31.909Z,41.90
2018-03-25T22:05:05.815Z,38.20
2018-03-25T22:07:39.035Z,43.13
2018-03-25T22:10:12.973Z,41.83
2018-03-25T22:12:46.073Z,41.30
2018-03-25T22:15:18.932Z,43.33
2018-03-25T22:17:52.139Z,40.40
2018-03-25T22:20:24.903Z,40.57
2018-03-25T22:22:58.827Z,42.87
2018-03-25T22:25:31.590Z,37.90
2018-03-25T22:28:04.387Z,38.87
2018-03-25T22:30:36.885Z,39.07
2018-03-25T22:33:09.533Z,36.53
2018-03-25T22:35:42.798Z,37.30
2018-03-25T22:38:15.172Z,38.83
2018-03-25T22:40:47.979Z,37.90
2018-03-25T22:43:21.222Z,38.67
2018-03-25T22:45:54.120Z,42.27
2018-03-25T22:48:26.850Z,38.37
2018-03-25T22:50:59.883Z,39.37
2018-03-25T22:53:32.446Z,38.27
2018-03-25T22:56:05.584Z,38.20
2018-03-25T22:58:38.740Z,39.00
2018-03-25T23:01:11.557Z,40.80
2018-03-25T23:03:44.269Z,39.87
2018-03-25T23:06:21.126Z,37.37
2018-03-25T23:08:53.685Z,40.50
2018-03-25T23:11:26.468Z,42.00
2018-03-25T23:30:29.600Z,38.97
2018-03-25T23:33:02.107Z,40.47
2018-03-25T23:35:34.596Z,38.07
2018-03-25T23:54:41.519Z,36.90
2018-03-25T23:57:13.994Z,38.77
2018-03-25T23:59:46.726Z,36.87
